createdAt,value
2022-08-17T00:00:49.489Z,24.30
2022-08-17T00:03:02.837Z,24.20
2022-08-17T00:05:09.466Z,24.20
2022-08-17T00:07:14.887Z,24.20
2022-08-17T00:09:19.756Z,24.20
2022-08-17T00:11:27.402Z,24.10
2022-08-17T00:13:33.769Z,24.20
2022-08-17T00:15:38.909Z,24.10
2022-08-17T00:17:44.006Z,24.10
2022-08-17T00:19:45.751Z,24.10
2022-08-17T00:22:29.804Z,24.00
2022-08-17T00:24:15.170Z,24.00
2022-08-17T00:26:44.160Z,24.00
2022-08-17T00:28:41.128Z,24.00
2022-08-17T00:30:52.747Z,24.00
2022-08-17T00:33:23.498Z,24.00
2022-08-17T00:35:23.278Z,24.00
2022-08-17T00:37:24.967Z,24.00
2022-08-17T00:39:28.065Z,23.90
2022-08-17T00:41:31.055Z,23.90
2022-08-17T00:43:44.279Z,23.90
2022-08-17T00:45:47.395Z,23.90
2022-08-17T00:47:51.306Z,23.80
2022-08-17T00:49:55.881Z,23.80
2022-08-17T00:52:11.697Z,23.80
2022-08-17T00:54:20.953Z,23.80
2022-08-17T00:56:37.679Z,23.80
2022-08-17T00:58:41.127Z,23.80
2022-08-17T01:00:45.793Z,23.70
2022-08-17T01:02:51.362Z,23.70
2022-08-17T01:04:54.524Z,23.70
2022-08-17T01:07:00.590Z,23.70
2022-08-17T01:09:03.466Z,23.60
2022-08-17T01:11:06.060Z,23.50
2022-08-17T01:13:08.437Z,23.50
2022-08-17T01:15:10.870Z,23.50
2022-08-17T01:17:13.401Z,23.40
2022-08-17T01:19:25.169Z,23.40
2022-08-17T01:21:39.287Z,23.40
2022-08-17T01:23:42.339Z,23.40
2022-08-17T01:25:44.480Z,23.40
2022-08-17T01:27:53.197Z,23.30
2022-08-17T01:30:00.778Z,23.30
2022-08-17T01:32:05.568Z,23.30
2022-08-17T01:34:12.708Z,23.30
2022-08-17T01:36:16.755Z,23.30
2022-08-17T01:38:27.195Z,23.30
2022-08-17T01:40:39.081Z,23.30
2022-08-17T01:42:54.911Z,23.30
2022-08-17T01:45:01.782Z,23.30
2022-08-17T01:47:05.935Z,23.30
2022-08-17T01:49:11.219Z,23.30
2022-08-17T01:51:14.689Z,23.30
2022-08-17T01:53:32.888Z,23.30
2022-08-17T01:55:43.905Z,23.30
2022-08-17T01:57:46.232Z,23.30
2022-08-17T01:59:48.217Z,23.30
2022-08-17T02:01:50.804Z,23.30
2022-08-17T02:04:00.643Z,23.20
2022-08-17T02:06:05.856Z,23.20
2022-08-17T02:08:36.886Z,23.20
2022-08-17T02:10:46.802Z,23.20
2022-08-17T02:12:50.465Z,23.20
2022-08-17T02:14:52.279Z,23.10
2022-08-17T02:16:54.365Z,23.10
2022-08-17T02:18:56.098Z,23.20
2022-08-17T02:20:58.039Z,23.10
2022-08-17T02:23:02.309Z,23.10
2022-08-17T02:25:06.263Z,23.10
2022-08-17T02:27:07.986Z,23.10
2022-08-17T02:29:09.776Z,23.10
2022-08-17T02:31:12.858Z,23.10
2022-08-17T02:33:17.652Z,23.10
2022-08-17T02:35:22.630Z,23.10
2022-08-17T02:37:32.746Z,23.10
2022-08-17T02:39:36.740Z,23.10
2022-08-17T02:41:39.623Z,23.10
2022-08-17T02:43:43.509Z,23.10
2022-08-17T02:45:45.205Z,23.10
2022-08-17T02:47:47.135Z,23.10
2022-08-17T02:49:55.330Z,23.10
2022-08-17T02:51:58.860Z,23.10
2022-08-17T02:54:39.349Z,23.00
2022-08-17T02:56:26.563Z,23.00
2022-08-17T02:58:28.290Z,23.00
2022-08-17T03:00:45.088Z,23.00
2022-08-17T03:02:47.770Z,23.00
2022-08-17T03:04:49.675Z,23.00
2022-08-17T03:06:51.384Z,23.00
2022-08-17T03:08:56.135Z,22.90
2022-08-17T03:10:58.182Z,22.90
2022-08-17T03:13:00.479Z,22.90
2022-08-17T03:15:26.125Z,22.90
2022-08-17T03:17:27.822Z,22.90
2022-08-17T03:19:29.537Z,22.80
2022-08-17T03:21:33.464Z,22.70
2022-08-17T03:23:40.962Z,22.70
2022-08-17T03:25:54.176Z,22.70
2022-08-17T03:27:57.146Z,22.70
2022-08-17T03:30:00.517Z,22.60
2022-08-17T03:32:16.863Z,22.60
2022-08-17T03:34:18.842Z,22.60
2022-08-17T03:36:20.645Z,22.50
2022-08-17T03:38:24.779Z,22.50
2022-08-17T03:40:39.886Z,22.50
2022-08-17T03:42:54.638Z,22.50
2022-08-17T03:44:58.060Z,22.50
2022-08-17T03:47:21.327Z,22.40
2022-08-17T03:49:41.874Z,22.40
2022-08-17T03:52:04.525Z,22.50
2022-08-17T03:54:25.912Z,22.40
2022-08-17T03:56:42.747Z,22.40
2022-08-17T03:58:48.403Z,22.40
2022-08-17T04:00:51.282Z,22.40
2022-08-17T04:02:55.191Z,22.50
2022-08-17T04:04:58.079Z,22.50
2022-08-17T04:06:59.994Z,22.50
2022-08-17T04:09:01.940Z,22.50
2022-08-17T04:11:03.759Z,22.50
2022-08-17T04:13:05.866Z,22.50
2022-08-17T04:15:08.202Z,22.50
2022-08-17T04:17:09.957Z,22.50
2022-08-17T04:19:13.627Z,22.50
2022-08-17T04:21:15.481Z,22.60
2022-08-17T04:23:18.818Z,22.60
2022-08-17T04:25:21.810Z,22.60
2022-08-17T04:27:23.964Z,22.60
2022-08-17T04:29:26.232Z,22.60
2022-08-17T04:31:50.576Z,22.60
2022-08-17T04:33:52.396Z,22.60
2022-08-17T04:35:56.799Z,22.60
2022-08-17T04:37:58.743Z,22.60
2022-08-17T04:40:19.069Z,22.60
2022-08-17T04:42:20.780Z,22.60
2022-08-17T04:44:36.895Z,22.60
2022-08-17T04:46:39.658Z,22.60
2022-08-17T04:48:48.528Z,22.60
2022-08-17T04:50:50.946Z,22.50
2022-08-17T04:52:52.707Z,22.50
2022-08-17T04:54:54.385Z,22.50
2022-08-17T04:56:58.517Z,22.50
2022-08-17T04:59:05.996Z,22.50
2022-08-17T05:01:11.425Z,22.50
2022-08-17T05:03:13.718Z,22.50
2022-08-17T05:05:27.364Z,22.50
2022-08-17T05:07:31.608Z,22.50
2022-08-17T05:09:35.834Z,22.50
2022-08-17T05:11:38.820Z,22.50
2022-08-17T05:13:52.104Z,22.50
2022-08-17T05:15:57.084Z,22.50
2022-08-17T05:18:01.285Z,22.50
2022-08-17T05:20:05.986Z,22.40
2022-08-17T05:22:09.362Z,22.40
2022-08-17T05:24:38.184Z,22.40
2022-08-17T05:26:36.514Z,22.40
2022-08-17T05:28:39.528Z,22.40
2022-08-17T05:30:44.695Z,22.40
2022-08-17T05:32:53.164Z,22.40
2022-08-17T05:34:59.405Z,22.40
2022-08-17T05:37:01.267Z,22.40
2022-08-17T05:39:07.493Z,22.40
2022-08-17T05:41:09.782Z,22.40
2022-08-17T05:43:24.256Z,22.40
2022-08-17T05:45:54.153Z,22.50
2022-08-17T05:47:53.969Z,22.50
2022-08-17T05:49:58.284Z,22.50
2022-08-17T05:52:38.779Z,22.50
2022-08-17T05:54:59.610Z,22.60
2022-08-17T05:57:20.991Z,22.60
2022-08-17T05:59:34.251Z,22.70
2022-08-17T06:01:42.212Z,22.70
2022-08-17T06:04:18.031Z,22.60
2022-08-17T06:06:37.370Z,22.70
2022-08-17T06:09:10.806Z,22.70
2022-08-17T06:11:53.503Z,22.80
2022-08-17T06:14:01.683Z,22.80
2022-08-17T06:16:33.270Z,22.80
2022-08-17T06:18:47.338Z,22.80
2022-08-17T06:20:56.436Z,22.80
2022-08-17T06:23:05.869Z,22.80
2022-08-17T06:25:17.943Z,22.80
2022-08-17T06:27:31.229Z,22.80
2022-08-17T06:29:46.846Z,22.80
2022-08-17T06:31:50.782Z,22.80
2022-08-17T06:33:56.761Z,22.80
2022-08-17T06:36:09.222Z,22.80
2022-08-17T06:38:37.613Z,22.80
2022-08-17T06:41:00.363Z,22.80
2022-08-17T06:43:25.335Z,22.80
2022-08-17T06:45:41.596Z,22.90
2022-08-17T06:47:56.880Z,22.90
2022-08-17T06:50:31.200Z,22.90
2022-08-17T06:52:46.437Z,22.90
2022-08-17T06:55:18.078Z,22.90
2022-08-17T06:57:30.503Z,22.90
2022-08-17T06:59:55.819Z,22.90
2022-08-17T07:02:05.514Z,22.90
2022-08-17T07:04:30.056Z,23.00
2022-08-17T07:06:50.993Z,23.00
2022-08-17T07:08:57.765Z,22.90
2022-08-17T07:11:08.887Z,22.90
2022-08-17T07:13:51.690Z,22.90
2022-08-17T07:16:08.889Z,23.00
2022-08-17T07:18:13.218Z,22.90
2022-08-17T07:20:18.101Z,23.00
2022-08-17T07:22:53.502Z,22.90
2022-08-17T07:25:06.316Z,22.90
2022-08-17T07:27:12.565Z,22.90
2022-08-17T07:29:17.792Z,22.90
2022-08-17T07:31:24.522Z,22.90
2022-08-17T07:33:29.629Z,22.90
2022-08-17T07:35:50.247Z,22.90
2022-08-17T07:38:26.240Z,22.90
2022-08-17T07:40:34.987Z,22.90
2022-08-17T07:42:36.706Z,22.90
2022-08-17T07:44:54.500Z,22.90
2022-08-17T07:47:17.876Z,22.90
2022-08-17T07:49:34.329Z,22.90
2022-08-17T07:51:45.685Z,22.90
2022-08-17T07:53:49.907Z,23.00
2022-08-17T07:55:53.841Z,23.00
2022-08-17T07:57:58.297Z,23.00
2022-08-17T08:00:00.041Z,23.10
2022-08-17T08:02:29.546Z,23.10
2022-08-17T08:05:01.915Z,23.20
2022-08-17T08:07:11.946Z,23.30
2022-08-17T08:09:30.072Z,23.30
2022-08-17T08:11:35.758Z,23.40
2022-08-17T08:13:43.604Z,23.50
2022-08-17T08:15:53.920Z,23.60
2022-08-17T08:18:02.869Z,23.60
2022-08-17T08:20:42.413Z,23.70
2022-08-17T08:22:52.766Z,23.80
2022-08-17T08:25:14.830Z,23.90
2022-08-17T08:27:26.453Z,24.00
2022-08-17T08:29:53.843Z,24.00
2022-08-17T08:32:35.039Z,24.10
2022-08-17T08:35:02.099Z,24.20
2022-08-17T08:37:42.987Z,24.20
2022-08-17T08:39:56.967Z,24.30
2022-08-17T08:41:58.798Z,24.40
2022-08-17T08:45:00.085Z,24.40
2022-08-17T08:47:35.368Z,24.40
2022-08-17T08:50:03.267Z,24.50
2022-08-17T08:52:14.379Z,24.50
2022-08-17T08:54:47.386Z,24.40
2022-08-17T08:57:22.201Z,24.50
2022-08-17T08:59:44.299Z,24.40
2022-08-17T09:02:00.453Z,24.50
2022-08-17T09:04:25.981Z,24.50
2022-08-17T09:06:50.624Z,24.50
2022-08-17T09:09:02.268Z,24.50
2022-08-17T09:11:19.309Z,24.60
2022-08-17T09:13:57.823Z,24.60
2022-08-17T09:16:06.588Z,24.70
2022-08-17T09:19:01.231Z,24.70
2022-08-17T09:21:05.098Z,24.80
2022-08-17T09:23:22.501Z,24.80
2022-08-17T09:25:28.882Z,24.90
2022-08-17T09:27:47.913Z,24.90
2022-08-17T09:29:53.833Z,24.90
2022-08-17T09:32:09.151Z,24.90
2022-08-17T09:34:18.133Z,25.00
2022-08-17T09:36:31.051Z,25.00
2022-08-17T09:39:02.013Z,25.00
2022-08-17T09:41:21.738Z,25.00
2022-08-17T09:43:37.435Z,25.10
2022-08-17T09:45:54.253Z,25.20
2022-08-17T09:48:18.446Z,25.30
2022-08-17T09:51:03.486Z,25.40
2022-08-17T09:53:03.309Z,25.40
2022-08-17T09:55:08.015Z,25.40
2022-08-17T09:57:31.106Z,25.40
2022-08-17T09:59:49.901Z,25.50
2022-08-17T10:02:13.742Z,25.50
2022-08-17T10:04:29.930Z,25.50
2022-08-17T10:06:41.373Z,25.50
2022-08-17T10:08:52.234Z,25.40
2022-08-17T10:11:07.050Z,25.40
2022-08-17T10:13:26.332Z,25.40
2022-08-17T10:15:42.632Z,25.40
2022-08-17T10:18:15.755Z,25.50
2022-08-17T10:20:32.099Z,25.60
2022-08-17T10:23:07.207Z,25.70
2022-08-17T10:25:53.613Z,25.80
2022-08-17T10:27:56.587Z,25.80
2022-08-17T10:30:04.709Z,25.90
2022-08-17T10:32:11.162Z,26.00
2022-08-17T10:34:29.442Z,26.00
2022-08-17T10:37:02.450Z,26.00
2022-08-17T10:39:52.308Z,26.10
2022-08-17T10:41:59.102Z,26.20
2022-08-17T10:44:38.829Z,26.20
2022-08-17T10:46:52.150Z,26.20
2022-08-17T10:49:35.684Z,26.20
2022-08-17T10:51:42.324Z,26.20
2022-08-17T10:53:48.483Z,26.20
2022-08-17T10:56:39.338Z,26.20
2022-08-17T10:58:55.857Z,26.20
2022-08-17T11:00:59.189Z,26.30
2022-08-17T11:03:01.910Z,26.30
2022-08-17T11:05:44.084Z,26.30
2022-08-17T11:08:14.433Z,26.40
2022-08-17T11:10:46.412Z,26.60
2022-08-17T11:13:21.848Z,26.70
2022-08-17T11:15:51.420Z,26.70
2022-08-17T11:18:11.460Z,26.80
2022-08-17T11:20:40.780Z,26.80
2022-08-17T11:23:04.579Z,26.90
2022-08-17T11:25:21.265Z,26.90
2022-08-17T11:27:31.524Z,27.00
2022-08-17T11:29:52.946Z,27.00
2022-08-17T11:32:16.545Z,27.10
2022-08-17T11:34:26.334Z,27.30
2022-08-17T11:36:49.160Z,27.30
2022-08-17T11:39:13.233Z,27.50
2022-08-17T11:41:35.178Z,27.60
2022-08-17T11:44:04.626Z,27.80
2022-08-17T11:46:53.688Z,27.90
2022-08-17T11:50:01.444Z,28.00
2022-08-17T11:52:04.974Z,28.20
2022-08-17T11:54:32.118Z,28.10
2022-08-17T11:56:41.056Z,28.10
2022-08-17T11:58:44.755Z,28.10
2022-08-17T12:00:46.531Z,28.10
2022-08-17T12:02:50.745Z,28.10
2022-08-17T12:05:13.310Z,28.10
2022-08-17T12:07:22.483Z,28.20
2022-08-17T12:09:34.389Z,28.10
2022-08-17T12:12:13.095Z,28.10
2022-08-17T12:14:35.500Z,28.20
2022-08-17T12:16:44.509Z,28.20
2022-08-17T12:18:57.978Z,28.30
2022-08-17T12:21:06.674Z,28.40
2022-08-17T12:23:11.416Z,28.50
2022-08-17T12:25:32.912Z,28.60
2022-08-17T12:27:46.160Z,28.70
2022-08-17T12:30:04.199Z,28.80
2022-08-17T12:32:13.990Z,28.90
2022-08-17T12:34:28.035Z,28.90
2022-08-17T12:36:32.192Z,29.10
2022-08-17T12:38:36.098Z,29.20
2022-08-17T12:40:38.015Z,29.30
2022-08-17T12:42:41.368Z,29.30
2022-08-17T12:44:49.977Z,29.40
2022-08-17T12:47:01.692Z,29.40
2022-08-17T12:49:32.670Z,29.50
2022-08-17T12:51:36.214Z,29.60
2022-08-17T12:53:42.385Z,29.50
2022-08-17T12:55:45.342Z,29.50
2022-08-17T12:57:51.766Z,29.50
2022-08-17T13:00:10.635Z,29.60
2022-08-17T13:02:30.137Z,29.60
2022-08-17T13:04:31.949Z,29.80
2022-08-17T13:06:35.671Z,29.80
2022-08-17T13:08:43.865Z,29.80
2022-08-17T13:11:16.502Z,29.90
2022-08-17T13:13:30.105Z,29.90
2022-08-17T13:15:44.620Z,30.00
2022-08-17T13:18:00.322Z,30.00
2022-08-17T13:20:07.586Z,30.10
2022-08-17T13:22:12.908Z,30.10
2022-08-17T13:24:17.576Z,30.10
2022-08-17T13:26:29.294Z,30.10
2022-08-17T13:28:36.107Z,30.20
2022-08-17T13:30:42.590Z,30.20
2022-08-17T13:32:48.634Z,30.20
2022-08-17T13:35:14.952Z,30.20
2022-08-17T13:37:26.045Z,30.20
2022-08-17T13:39:28.683Z,30.30
2022-08-17T13:41:35.267Z,30.40
2022-08-17T13:43:40.757Z,30.40
2022-08-17T13:45:50.585Z,30.50
2022-08-17T13:48:24.512Z,30.60
2022-08-17T13:50:26.276Z,30.70
2022-08-17T13:52:50.067Z,30.70
2022-08-17T13:54:57.094Z,30.80
2022-08-17T13:57:21.575Z,30.90
2022-08-17T13:59:53.443Z,31.00
2022-08-17T14:02:00.401Z,31.00
2022-08-17T14:04:07.606Z,31.00
2022-08-17T14:06:09.421Z,30.90
2022-08-17T14:08:14.388Z,30.90
2022-08-17T14:10:18.053Z,30.90
2022-08-17T14:12:24.942Z,30.90
2022-08-17T14:14:29.220Z,30.90
2022-08-17T14:16:30.943Z,30.90
2022-08-17T14:18:57.076Z,31.00
2022-08-17T14:20:57.401Z,31.10
2022-08-17T14:22:59.102Z,31.20
2022-08-17T14:25:04.350Z,31.30
2022-08-17T14:27:10.346Z,31.40
2022-08-17T14:29:14.915Z,31.40
2022-08-17T14:31:21.045Z,31.40
2022-08-17T14:33:24.753Z,31.50
2022-08-17T14:35:28.045Z,31.50
2022-08-17T14:37:31.845Z,31.50
2022-08-17T14:39:33.622Z,31.50
2022-08-17T14:41:39.404Z,31.40
2022-08-17T14:43:41.135Z,31.40
2022-08-17T14:45:43.592Z,31.30
2022-08-17T14:47:45.360Z,31.20
2022-08-17T14:49:48.393Z,31.20
2022-08-17T14:51:50.359Z,31.10
2022-08-17T14:53:52.052Z,31.10
2022-08-17T14:55:56.128Z,31.00
2022-08-17T14:57:59.275Z,31.10
2022-08-17T15:00:02.069Z,31.10
2022-08-17T15:02:08.749Z,31.10
2022-08-17T15:04:21.332Z,31.20
2022-08-17T15:06:25.895Z,31.20
2022-08-17T15:08:30.166Z,31.30
2022-08-17T15:10:32.483Z,31.30
2022-08-17T15:12:34.802Z,31.30
2022-08-17T15:14:36.587Z,31.30
2022-08-17T15:16:38.487Z,31.30
2022-08-17T15:18:41.115Z,31.30
2022-08-17T15:20:44.553Z,31.30
2022-08-17T15:22:49.789Z,31.40
2022-08-17T15:24:51.690Z,31.40
2022-08-17T15:26:53.354Z,31.50
2022-08-17T15:28:56.047Z,31.50
2022-08-17T15:30:57.799Z,31.50
2022-08-17T15:33:00.838Z,31.50
2022-08-17T15:35:07.554Z,31.50
2022-08-17T15:37:09.236Z,31.50
2022-08-17T15:39:10.912Z,31.50
2022-08-17T15:41:15.271Z,31.60
2022-08-17T15:43:27.738Z,31.60
2022-08-17T15:45:30.687Z,31.70
2022-08-17T15:47:32.390Z,31.70
2022-08-17T15:49:34.088Z,31.70
2022-08-17T15:51:36.066Z,31.70
2022-08-17T15:53:39.140Z,31.70
2022-08-17T15:55:40.825Z,31.80
2022-08-17T15:57:42.573Z,31.90
2022-08-17T15:59:47.490Z,31.90
2022-08-17T16:03:01.886Z,31.90
2022-08-17T16:04:33.517Z,32.00
2022-08-17T16:06:37.492Z,32.00
2022-08-17T16:08:43.378Z,32.00
2022-08-17T16:10:45.150Z,32.00
2022-08-17T16:12:49.590Z,32.00
2022-08-17T16:14:54.243Z,32.00
2022-08-17T16:16:56.068Z,31.90
2022-08-17T16:19:01.561Z,31.90
2022-08-17T16:21:25.038Z,31.80
2022-08-17T16:23:27.082Z,31.80
2022-08-17T16:25:52.514Z,31.70
2022-08-17T16:27:54.741Z,31.60
2022-08-17T16:29:56.591Z,31.50
2022-08-17T16:32:13.350Z,31.30
2022-08-17T16:34:18.375Z,31.20
2022-08-17T16:36:23.211Z,31.10
2022-08-17T16:38:25.022Z,31.00
2022-08-17T16:40:31.337Z,30.90
2022-08-17T16:42:43.109Z,30.80
2022-08-17T16:44:46.823Z,30.70
2022-08-17T16:46:51.592Z,30.70
2022-08-17T16:48:53.537Z,30.60
2022-08-17T16:51:02.922Z,30.60
2022-08-17T16:53:11.022Z,30.50
2022-08-17T16:55:13.141Z,30.50
2022-08-17T16:57:17.326Z,30.50
2022-08-17T16:59:31.337Z,30.40
2022-08-17T17:01:42.901Z,30.40
2022-08-17T17:03:48.905Z,30.30
2022-08-17T17:06:30.926Z,30.30
2022-08-17T17:08:44.653Z,30.30
2022-08-17T17:10:49.958Z,30.20
2022-08-17T17:13:01.395Z,30.10
2022-08-17T17:15:10.446Z,30.00
2022-08-17T17:17:34.207Z,30.00
2022-08-17T17:19:41.280Z,30.00
2022-08-17T17:21:52.969Z,29.90
2022-08-17T17:24:03.869Z,29.80
2022-08-17T17:26:44.116Z,29.80
2022-08-17T17:29:04.997Z,29.70
2022-08-17T17:31:15.301Z,29.70
2022-08-17T17:33:22.408Z,29.60
2022-08-17T17:35:31.571Z,29.60
2022-08-17T17:37:38.664Z,29.50
2022-08-17T17:40:12.956Z,29.50
2022-08-17T17:42:23.423Z,29.50
2022-08-17T17:44:33.586Z,29.40
2022-08-17T17:46:42.687Z,29.40
2022-08-17T17:48:47.907Z,29.30
2022-08-17T17:51:13.630Z,29.30
2022-08-17T17:54:02.017Z,29.30
2022-08-17T17:56:35.593Z,29.30
2022-08-17T17:58:55.389Z,29.30
2022-08-17T18:01:29.569Z,29.20
2022-08-17T18:03:42.700Z,29.20
2022-08-17T18:05:48.734Z,29.10
2022-08-17T18:07:59.782Z,29.10
2022-08-17T18:10:30.041Z,29.00
2022-08-17T18:12:54.109Z,29.00
2022-08-17T18:14:55.854Z,28.90
2022-08-17T18:16:59.848Z,28.80
2022-08-17T18:19:03.633Z,28.70
2022-08-17T18:21:19.355Z,28.70
2022-08-17T18:23:27.073Z,28.60
2022-08-17T18:25:48.610Z,28.50
2022-08-17T18:27:51.961Z,28.50
2022-08-17T18:29:56.711Z,28.40
2022-08-17T18:32:18.936Z,28.40
2022-08-17T18:36:47.247Z,28.20
2022-08-17T18:38:50.907Z,28.20
2022-08-17T18:41:02.795Z,28.10
2022-08-17T18:43:52.896Z,28.00
2022-08-17T18:45:59.761Z,28.00
2022-08-17T18:48:02.271Z,27.90
2022-08-17T18:50:39.617Z,27.80
2022-08-17T18:52:41.323Z,27.80
2022-08-17T18:55:14.105Z,27.60
2022-08-17T18:57:38.633Z,27.60
2022-08-17T18:59:48.218Z,27.50
2022-08-17T19:02:19.988Z,27.40
2022-08-17T19:04:37.306Z,27.30
2022-08-17T19:06:39.764Z,27.20
2022-08-17T19:08:41.929Z,27.10
2022-08-17T19:10:46.303Z,27.00
2022-08-17T19:13:12.671Z,26.90
2022-08-17T19:15:19.115Z,26.80
2022-08-17T19:17:47.595Z,26.80
2022-08-17T19:19:54.524Z,26.70
2022-08-17T19:22:13.676Z,26.60
2022-08-17T19:24:33.481Z,26.60
2022-08-17T19:26:50.858Z,26.50
2022-08-17T19:29:02.300Z,26.40
2022-08-17T19:31:13.973Z,26.30
2022-08-17T19:33:15.912Z,26.30
2022-08-17T19:35:21.827Z,26.20
2022-08-17T19:37:41.024Z,26.10
2022-08-17T19:39:52.245Z,26.10
2022-08-17T19:42:03.551Z,26.00
2022-08-17T19:44:36.735Z,26.00
2022-08-17T19:47:07.683Z,26.00
2022-08-17T19:49:34.456Z,25.90
2022-08-17T19:52:00.006Z,25.90
2022-08-17T19:54:34.988Z,25.80
2022-08-17T19:57:06.045Z,25.70
2022-08-17T19:59:48.866Z,25.70
2022-08-17T20:02:01.044Z,25.60
2022-08-17T20:04:07.245Z,25.60
2022-08-17T20:06:13.517Z,25.50
2022-08-17T20:08:27.424Z,25.40
2022-08-17T20:10:47.363Z,25.40
2022-08-17T20:13:05.811Z,25.40
2022-08-17T20:15:14.734Z,25.30
2022-08-17T20:17:18.630Z,25.20
2022-08-17T20:19:51.964Z,25.20
2022-08-17T20:22:15.543Z,25.20
2022-08-17T20:24:32.160Z,25.20
2022-08-17T20:26:58.362Z,25.20
2022-08-17T20:29:19.078Z,25.10
2022-08-17T20:32:04.739Z,25.10
2022-08-17T20:34:39.773Z,25.10
2022-08-17T20:37:08.927Z,25.10
2022-08-17T20:39:34.832Z,25.10
2022-08-17T20:42:07.930Z,25.10
2022-08-17T20:44:09.949Z,25.00
2022-08-17T20:46:26.754Z,24.90
2022-08-17T20:48:38.444Z,24.90
2022-08-17T20:50:56.034Z,24.80
2022-08-17T20:53:05.894Z,24.90
2022-08-17T20:55:08.106Z,24.90
2022-08-17T20:57:32.502Z,24.90
2022-08-17T20:59:34.188Z,24.80
2022-08-17T21:01:39.763Z,24.80
2022-08-17T21:03:50.661Z,24.80
2022-08-17T21:06:17.098Z,24.90
2022-08-17T21:08:25.821Z,24.80
2022-08-17T21:10:29.833Z,24.80
2022-08-17T21:13:05.399Z,24.80
2022-08-17T21:15:30.884Z,24.80
2022-08-17T21:17:37.875Z,24.70
2022-08-17T21:20:22.526Z,24.70
2022-08-17T21:22:57.523Z,24.70
2022-08-17T21:25:26.259Z,24.70
2022-08-17T21:27:47.662Z,24.60
2022-08-17T21:29:53.943Z,24.60
2022-08-17T21:32:03.910Z,24.50
2022-08-17T21:34:16.613Z,24.50
2022-08-17T21:36:24.589Z,24.50
2022-08-17T21:38:54.430Z,24.50
2022-08-17T21:40:58.902Z,24.40
2022-08-17T21:43:23.510Z,24.40
2022-08-17T21:45:37.562Z,24.40
2022-08-17T21:47:43.631Z,24.40
2022-08-17T21:49:45.529Z,24.30
2022-08-17T21:51:53.728Z,24.30
2022-08-17T21:54:05.633Z,24.30
2022-08-17T21:56:26.329Z,24.20
2022-08-17T21:58:34.164Z,24.20
2022-08-17T22:00:38.694Z,24.20
2022-08-17T22:02:43.568Z,24.10
2022-08-17T22:04:57.684Z,24.10
2022-08-17T22:07:02.888Z,24.10
2022-08-17T22:09:29.158Z,24.10
2022-08-17T22:11:53.805Z,24.10
2022-08-17T22:14:05.937Z,24.10
2022-08-17T22:16:29.084Z,24.10
2022-08-17T22:18:31.871Z,24.10
2022-08-17T22:20:34.504Z,24.00
2022-08-17T22:23:06.266Z,24.00
2022-08-17T22:25:19.332Z,24.10
2022-08-17T22:27:21.541Z,24.00
2022-08-17T22:29:58.764Z,24.00
2022-08-17T22:32:00.510Z,24.00
2022-08-17T22:34:02.286Z,24.00
2022-08-17T22:36:30.910Z,24.00
2022-08-17T22:38:34.434Z,24.00
2022-08-17T22:40:36.267Z,24.00
2022-08-17T22:42:49.409Z,24.00
2022-08-17T22:44:54.009Z,24.00
2022-08-17T22:47:11.515Z,23.90
2022-08-17T22:49:26.589Z,23.90
2022-08-17T22:51:30.838Z,24.00
2022-08-17T22:53:53.745Z,23.90
2022-08-17T22:56:16.720Z,23.90
2022-08-17T22:58:42.463Z,23.90
2022-08-17T23:00:49.203Z,23.90
2022-08-17T23:03:11.179Z,23.80
2022-08-17T23:05:18.735Z,23.90
2022-08-17T23:07:21.256Z,23.80
2022-08-17T23:09:23.143Z,23.80
2022-08-17T23:11:49.705Z,23.80
2022-08-17T23:13:56.783Z,23.80
2022-08-17T23:15:58.975Z,23.80
2022-08-17T23:18:04.654Z,23.80
2022-08-17T23:20:11.970Z,23.70
2022-08-17T23:22:13.748Z,23.70
2022-08-17T23:24:22.855Z,23.70
2022-08-17T23:26:24.842Z,23.70
2022-08-17T23:28:28.831Z,23.70
2022-08-17T23:30:34.329Z,23.70
2022-08-17T23:32:38.761Z,23.70
2022-08-17T23:34:55.378Z,23.70
2022-08-17T23:36:57.202Z,23.70
2022-08-17T23:38:58.963Z,23.70
2022-08-17T23:41:05.339Z,23.60
2022-08-17T23:43:24.371Z,23.70
2022-08-17T23:45:27.161Z,23.60
2022-08-17T23:47:29.440Z,23.60
2022-08-17T23:49:31.964Z,23.60
2022-08-17T23:51:40.319Z,23.50
2022-08-17T23:53:47.438Z,23.50
2022-08-17T23:56:09.696Z,23.50
2022-08-17T23:58:12.447Z,23.40
